Time;durP1;ratioP1;P1;durP2;ratioP2;P2;SDS_P1;SDS_P2;PMS_P1;PMS_P2;Temp;Humidity;BMP_temperature;BMP_pressure;BME280_temperature;BME280_humidity;BME280_pressure;Samples;Min_cycle;Max_cycle;Signal;HPM_P1;HPM_P2
2021/05/22 00:01:32;;;;;;;4.77;2.87;;;12.70;99.90;;;;;;5056640;28;20465;-76
2021/05/22 00:03:58;;;;;;;2.80;2.43;;;12.60;99.90;;;;;;5057123;28;20481;-76
2021/05/22 00:06:24;;;;;;;5.53;3.00;;;12.60;99.90;;;;;;5056157;28;20449;-75
2021/05/22 00:08:50;;;;;;;6.50;2.80;;;12.60;99.90;;;;;;5056093;28;20454;-76
2021/05/22 00:11:17;;;;;;;4.70;2.40;;;12.60;99.90;;;;;;5055826;28;20494;-77
2021/05/22 00:13:43;;;;;;;5.20;3.00;;;12.60;99.90;;;;;;5055768;28;20539;-76
2021/05/22 00:16:09;;;;;;;6.80;3.17;;;12.60;99.90;;;;;;5056124;28;20972;-77
2021/05/22 00:18:36;;;;;;;4.63;3.50;;;12.50;99.90;;;;;;5056175;28;20445;-77
2021/05/22 00:21:02;;;;;;;3.37;2.93;;;12.50;99.90;;;;;;5055565;28;20469;-77
2021/05/22 00:23:28;;;;;;;3.57;2.60;;;12.40;99.90;;;;;;5055827;28;20520;-77
2021/05/22 00:25:54;;;;;;;2.73;2.33;;;12.40;99.90;;;;;;5055831;28;20456;-77
2021/05/22 00:28:21;;;;;;;4.57;2.60;;;12.40;99.90;;;;;;5056610;28;20446;-76
2021/05/22 00:30:47;;;;;;;6.93;2.40;;;12.40;99.90;;;;;;5055118;28;21050;-77
2021/05/22 00:33:13;;;;;;;3.30;2.73;;;12.40;99.90;;;;;;5055599;28;20485;-76
2021/05/22 00:35:39;;;;;;;3.03;2.10;;;12.40;99.90;;;;;;5055783;28;20481;-76
2021/05/22 00:38:05;;;;;;;5.70;2.77;;;12.40;99.90;;;;;;5055578;28;20453;-77
2021/05/22 00:40:31;;;;;;;3.40;2.50;;;12.30;99.90;;;;;;5055578;28;20501;-77
2021/05/22 00:42:57;;;;;;;5.13;2.70;;;12.30;99.90;;;;;;5055553;28;20441;-77
2021/05/22 00:45:24;;;;;;;5.30;2.30;;;12.40;99.90;;;;;;5055126;28;20956;-76
2021/05/22 00:47:52;;;;;;;6.70;2.87;;;12.30;99.90;;;;;;5055349;28;20817;-76
2021/05/22 00:50:21;;;;;;;4.30;2.77;;;12.40;99.90;;;;;;5055196;28;20465;-76
2021/05/22 00:52:47;;;;;;;2.80;2.50;;;;;;;;;;5055217;28;20893;-76
2021/05/22 00:55:14;;;;;;;2.77;2.47;;;12.20;99.90;;;;;;5055251;28;20477;-76
2021/05/22 00:57:41;;;;;;;4.17;2.70;;;12.50;99.90;;;;;;5055180;28;20473;-76
2021/05/22 01:00:13;;;;;;;6.13;2.47;;;12.20;99.90;;;;;;5055150;28;20461;-76
2021/05/22 01:02:41;;;;;;;3.53;2.13;;;12.20;99.90;;;;;;5055087;28;20473;-76
2021/05/22 01:05:08;;;;;;;4.33;2.60;;;12.20;99.90;;;;;;5055762;28;20449;-77
2021/05/22 01:07:35;;;;;;;3.63;2.60;;;12.20;99.90;;;;;;5054681;28;20453;-76
2021/05/22 01:10:02;;;;;;;9.13;3.37;;;11.80;99.90;;;;;;5054813;28;20480;-76
2021/05/22 01:12:31;;;;;;;5.70;2.27;;;12.10;99.90;;;;;;5055333;28;20992;-76
2021/05/22 01:15:03;;;;;;;4.50;2.70;;;12.10;99.90;;;;;;5054836;28;20456;-76
2021/05/22 01:17:30;;;;;;;5.23;3.20;;;12.10;99.90;;;;;;5054681;28;20520;-76
2021/05/22 01:20:06;;;;;;;8.13;2.07;;;11.90;99.90;;;;;;5054499;28;20479;-76
2021/05/22 01:22:37;;;;;;;11.33;3.73;;;12.10;99.90;;;;;;5054653;28;20912;-76
2021/05/22 01:25:08;;;;;;;4.30;2.77;;;12.20;99.90;;;;;;5054664;28;20429;-76
2021/05/22 01:27:36;;;;;;;4.70;2.10;;;12.20;99.90;;;;;;5054726;28;20430;-76
2021/05/22 01:30:04;;;;;;;6.20;3.37;;;11.80;99.90;;;;;;5053936;28;20491;-76
2021/05/22 01:32:30;;;;;;;3.90;2.87;;;12.20;99.90;;;;;;5054563;28;20555;-76
2021/05/22 01:34:56;;;;;;;6.57;3.33;;;12.20;99.90;;;;;;5054439;28;20477;-76
2021/05/22 01:37:22;;;;;;;7.40;3.60;;;12.20;99.90;;;;;;5054384;28;20446;-76
2021/05/22 01:39:48;;;;;;;4.93;2.73;;;12.30;99.90;;;;;;5054227;28;20461;-76
2021/05/22 01:42:15;;;;;;;4.90;2.93;;;12.20;99.90;;;;;;5054256;28;20448;-76
2021/05/22 01:44:45;;;;;;;2.83;2.20;;;12.20;99.90;;;;;;5054179;28;20449;-76
2021/05/22 01:47:13;;;;;;;4.20;2.20;;;12.20;99.90;;;;;;5053989;28;20909;-76
2021/05/22 01:49:39;;;;;;;3.33;2.27;;;12.10;99.90;;;;;;5054108;28;20464;-76
2021/05/22 01:52:06;;;;;;;4.33;2.73;;;12.10;99.90;;;;;;5053949;28;20523;-76
2021/05/22 01:54:32;;;;;;;7.37;2.50;;;12.20;99.90;;;;;;5054109;28;20484;-76
2021/05/22 01:57:00;;;;;;;3.20;2.17;;;12.10;99.90;;;;;;5053996;28;20449;-76
2021/05/22 01:59:27;;;;;;;4.53;2.20;;;12.10;99.90;;;;;;5054073;28;20453;-76
2021/05/22 02:01:56;;;;;;;2.63;2.20;;;12.10;99.90;;;;;;5054026;28;20807;-76
2021/05/22 02:04:25;;;;;;;3.40;2.30;;;12.10;99.90;;;;;;5053828;28;20460;-77
2021/05/22 02:06:53;;;;;;;5.43;2.77;;;12.10;99.90;;;;;;5054603;28;20484;-76
2021/05/22 02:09:20;;;;;;;6.97;2.90;;;12.10;99.90;;;;;;5053505;28;20499;-76
2021/05/22 02:11:48;;;;;;;3.27;2.40;;;12.10;99.90;;;;;;5053361;28;20459;-75
2021/05/22 02:14:19;;;;;;;5.03;2.70;;;12.10;99.90;;;;;;5053703;28;20449;-76
2021/05/22 02:16:49;;;;;;;6.70;2.90;;;12.10;99.90;;;;;;5053838;28;20511;-76
2021/05/22 02:19:18;;;;;;;7.63;3.00;;;12.10;99.90;;;;;;5053316;28;20972;-76
2021/05/22 02:21:46;;;;;;;5.63;2.13;;;12.10;99.90;;;;;;5053561;28;20458;-76
2021/05/22 02:24:13;;;;;;;3.20;2.30;;;12.00;99.90;;;;;;5053547;28;20445;-76
2021/05/22 02:26:40;;;;;;;6.97;2.87;;;12.00;99.90;;;;;;5055296;28;20485;-75
2021/05/22 02:29:08;;;;;;;3.23;1.97;;;12.00;99.90;;;;;;5060572;28;20505;-75
2021/05/22 02:31:40;;;;;;;2.50;2.30;;;12.00;99.90;;;;;;5053189;28;20948;-76
2021/05/22 02:34:08;;;;;;;4.10;2.80;;;12.30;99.90;;;;;;5053695;28;20487;-76
2021/05/22 02:36:36;;;;;;;4.60;2.50;;;12.00;99.90;;;;;;5053605;28;20453;-75
2021/05/22 02:39:04;;;;;;;5.00;2.57;;;12.00;99.90;;;;;;5053476;28;20480;-75
2021/05/22 02:41:31;;;;;;;4.50;2.67;;;12.00;99.90;;;;;;5052509;28;20474;-75
2021/05/22 02:43:59;;;;;;;9.70;2.43;;;12.00;99.90;;;;;;5054093;28;20492;-75
2021/05/22 02:46:28;;;;;;;3.20;2.33;;;12.00;99.90;;;;;;5063932;28;20449;-75
2021/05/22 02:48:56;;;;;;;3.90;2.70;;;11.90;99.90;;;;;;5063612;28;20810;-75
2021/05/22 02:51:25;;;;;;;3.07;2.60;;;12.00;99.90;;;;;;5058987;28;20497;-75
2021/05/22 02:53:53;;;;;;;2.80;2.30;;;11.90;99.90;;;;;;5055656;28;20994;-75
2021/05/22 02:56:21;;;;;;;3.80;2.67;;;12.00;99.90;;;;;;5054224;28;20768;-76
2021/05/22 02:58:48;;;;;;;2.70;2.50;;;11.90;99.90;;;;;;5054106;28;20449;-75
2021/05/22 03:01:15;;;;;;;5.70;3.70;;;11.90;99.90;;;;;;5053654;28;20501;-75
2021/05/22 03:03:41;;;;;;;8.60;3.10;;;11.90;99.90;;;;;;5053730;28;20445;-75
2021/05/22 03:06:08;;;;;;;4.10;2.97;;;12.00;99.90;;;;;;5064298;28;20450;-75
2021/05/22 03:08:44;;;;;;;8.00;2.40;;;11.90;99.90;;;;;;5064981;28;20449;-75
2021/05/22 03:11:11;;;;;;;4.33;2.50;;;11.90;99.90;;;;;;5059824;28;20823;-75
2021/05/22 03:13:38;;;;;;;6.03;3.57;;;11.90;99.90;;;;;;5053858;28;20513;-75
2021/05/22 03:16:04;;;;;;;5.23;2.80;;;11.90;99.90;;;;;;5053678;28;20507;-75
2021/05/22 03:18:30;;;;;;;3.97;2.23;;;11.90;99.90;;;;;;5053410;28;20480;-76
2021/05/22 03:20:57;;;;;;;7.37;2.97;;;11.90;99.90;;;;;;5052881;28;20473;-75
2021/05/22 03:23:23;;;;;;;4.17;2.70;;;11.90;99.90;;;;;;5052972;28;20473;-75
2021/05/22 03:25:49;;;;;;;6.40;3.50;;;11.80;99.90;;;;;;5053068;28;20460;-75
2021/05/22 03:28:16;;;;;;;5.47;2.90;;;11.90;99.90;;;;;;5052950;28;20449;-75
2021/05/22 03:30:42;;;;;;;4.87;2.60;;;11.90;99.90;;;;;;5052672;28;20582;-75
2021/05/22 03:33:08;;;;;;;4.53;2.77;;;11.90;99.90;;;;;;5052694;28;20517;-75
2021/05/22 03:35:35;;;;;;;6.40;2.73;;;;;;;;;;5052837;28;20452;-75
2021/05/22 03:38:01;;;;;;;5.50;2.63;;;12.00;99.90;;;;;;5052862;28;20465;-75
2021/05/22 03:40:27;;;;;;;3.33;2.43;;;12.00;99.90;;;;;;5052783;28;20539;-75
2021/05/22 03:42:53;;;;;;;5.27;2.83;;;12.00;99.90;;;;;;5052686;28;20519;-76
2021/05/22 03:45:20;;;;;;;3.67;2.67;;;12.00;99.90;;;;;;5052734;28;20481;-75
2021/05/22 03:47:46;;;;;;;5.60;2.90;;;12.00;99.90;;;;;;5052576;28;20448;-75
2021/05/22 03:50:13;;;;;;;3.50;2.80;;;12.00;99.90;;;;;;5052507;28;20563;-76
2021/05/22 03:52:39;;;;;;;6.40;2.47;;;12.00;99.90;;;;;;5053604;28;20476;-75
2021/05/22 03:55:07;;;;;;;5.20;2.10;;;12.10;99.90;;;;;;5056363;28;20900;-75
2021/05/22 03:57:34;;;;;;;2.70;2.50;;;12.10;99.90;;;;;;5056027;28;21006;-77
2021/05/22 04:00:00;;;;;;;2.87;2.67;;;11.70;99.90;;;;;;5055843;28;20940;-75
2021/05/22 04:02:27;;;;;;;2.50;2.30;;;12.10;99.90;;;;;;5056223;28;20914;-75
2021/05/22 04:04:54;;;;;;;4.20;2.50;;;12.10;99.90;;;;;;5056239;28;20453;-74
2021/05/22 04:07:20;;;;;;;3.03;2.37;;;12.20;99.90;;;;;;5056114;28;20449;-76
2021/05/22 04:09:46;;;;;;;3.30;2.60;;;12.10;99.90;;;;;;5055888;28;20456;-75
2021/05/22 04:12:12;;;;;;;4.03;2.90;;;12.10;99.90;;;;;;5055970;28;20508;-76
2021/05/22 04:14:38;;;;;;;2.90;2.60;;;12.20;99.90;;;;;;5055883;28;20476;-76
2021/05/22 04:17:04;;;;;;;4.13;2.30;;;12.30;99.90;;;;;;5055885;28;20456;-75
2021/05/22 04:19:31;;;;;;;3.83;2.77;;;12.30;99.90;;;;;;5055876;28;20583;-76
2021/05/22 04:21:57;;;;;;;2.77;2.47;;;12.30;99.90;;;;;;5055789;28;20439;-75
2021/05/22 04:24:23;;;;;;;4.50;2.90;;;12.30;99.90;;;;;;5055789;28;20871;-76
2021/05/22 04:26:49;;;;;;;3.40;2.77;;;12.30;99.90;;;;;;5055647;28;20457;-75
2021/05/22 04:29:15;;;;;;;2.70;2.27;;;12.30;99.90;;;;;;5055665;28;20537;-75
2021/05/22 04:31:41;;;;;;;4.30;2.20;;;12.40;99.90;;;;;;5055141;28;20509;-75
2021/05/22 04:34:07;;;;;;;8.73;2.90;;;12.40;99.90;;;;;;5055570;28;20445;-76
2021/05/22 04:36:34;;;;;;;3.00;2.20;;;12.40;99.90;;;;;;5055511;28;20469;-76
2021/05/22 04:39:00;;;;;;;2.50;2.07;;;12.30;99.90;;;;;;5055539;28;20484;-75
2021/05/22 04:41:26;;;;;;;6.17;2.27;;;12.30;99.90;;;;;;5056319;28;20504;-76
2021/05/22 04:43:52;;;;;;;2.70;2.30;;;12.40;99.90;;;;;;5054945;28;20464;-75
2021/05/22 04:46:18;;;;;;;3.10;2.20;;;12.40;99.90;;;;;;5055708;28;20199;-76
2021/05/22 04:48:44;;;;;;;3.73;2.63;;;;;;;;;;5055517;28;20493;-75
2021/05/22 04:51:12;;;;;;;2.77;2.57;;;12.60;99.90;;;;;;5055572;28;20468;-75
2021/05/22 04:53:39;;;;;;;3.60;2.50;;;12.60;99.90;;;;;;5055755;28;20513;-77
2021/05/22 04:56:05;;;;;;;2.63;2.27;;;12.60;99.90;;;;;;5055633;28;20445;-77
2021/05/22 04:58:31;;;;;;;3.67;2.37;;;12.70;99.90;;;;;;5055325;28;20445;-77
2021/05/22 05:00:57;;;;;;;4.13;2.30;;;12.70;99.90;;;;;;5055292;28;20511;-77
2021/05/22 05:03:23;;;;;;;2.50;2.30;;;12.80;99.90;;;;;;5054761;28;20449;-76
2021/05/22 05:05:49;;;;;;;3.50;2.40;;;12.80;99.90;;;;;;5054568;28;20445;-76
2021/05/22 05:08:18;;;;;;;1.60;1.50;;;12.90;99.90;;;;;;5055605;28;20544;-76
2021/05/22 05:10:45;;;;;;;3.87;2.30;;;12.90;99.90;;;;;;5055115;28;20481;-76
2021/05/22 05:13:12;;;;;;;3.00;2.10;;;12.90;99.90;;;;;;5055665;28;20451;-76
2021/05/22 05:15:38;;;;;;;6.20;1.90;;;13.00;99.90;;;;;;5056407;28;20210;-76
2021/05/22 05:18:05;;;;;;;7.33;3.10;;;13.00;99.90;;;;;;5056172;28;20453;-77
2021/05/22 05:20:31;;;;;;;4.03;2.63;;;13.10;99.90;;;;;;5056065;28;20465;-76
2021/05/22 05:22:57;;;;;;;5.77;2.20;;;13.20;99.90;;;;;;5056351;28;20877;-75
2021/05/22 05:25:23;;;;;;;3.83;2.43;;;13.30;99.90;;;;;;5055472;28;20449;-76
2021/05/22 05:27:50;;;;;;;3.60;2.57;;;13.30;99.90;;;;;;5055432;28;20471;-76
2021/05/22 05:30:18;;;;;;;1.77;1.67;;;13.40;99.90;;;;;;5054449;28;21005;-76
2021/05/22 05:32:44;;;;;;;9.57;5.70;;;13.60;99.90;;;;;;5054858;28;20505;-76
2021/05/22 05:35:11;;;;;;;4.90;2.60;;;13.60;99.90;;;;;;5054841;28;20473;-76
2021/05/22 05:37:38;;;;;;;3.57;2.10;;;13.60;99.90;;;;;;5054395;28;20456;-76
2021/05/22 05:40:05;;;;;;;2.93;1.93;;;13.60;99.90;;;;;;5054758;28;20450;-76
2021/05/22 05:42:31;;;;;;;3.77;2.03;;;13.60;99.90;;;;;;5054747;28;20476;-77
2021/05/22 05:44:58;;;;;;;2.70;2.37;;;13.60;99.90;;;;;;5054802;28;20481;-76
2021/05/22 05:47:24;;;;;;;1.70;1.60;;;13.50;99.90;;;;;;5054456;28;20452;-76
2021/05/22 05:49:50;;;;;;;2.63;2.10;;;13.70;99.90;;;;;;5054218;28;20483;-76
2021/05/22 05:52:16;;;;;;;2.73;2.00;;;13.50;99.90;;;;;;5054096;28;20481;-77
2021/05/22 05:54:42;;;;;;;2.83;2.20;;;13.20;99.90;;;;;;5054408;28;20472;-76
2021/05/22 05:57:08;;;;;;;8.10;4.63;;;12.90;99.90;;;;;;5054150;28;20445;-76
2021/05/22 05:59:34;;;;;;;2.50;2.30;;;12.60;99.90;;;;;;5054029;28;20944;-77
2021/05/22 06:02:01;;;;;;;3.03;2.50;;;12.40;99.90;;;;;;5053982;28;20547;-77
2021/05/22 06:04:27;;;;;;;4.70;3.20;;;12.40;99.90;;;;;;5053921;28;20484;-75
2021/05/22 06:06:54;;;;;;;5.28;2.38;;;12.30;99.90;;;;;;5052586;28;20968;-75
2021/05/22 06:09:20;;;;;;;3.23;2.93;;;12.30;99.90;;;;;;5053988;28;20256;-76
2021/05/22 06:11:46;;;;;;;7.03;3.07;;;12.20;99.90;;;;;;5053563;28;20465;-75
2021/05/22 06:14:16;;;;;;;4.40;3.33;;;12.20;99.90;;;;;;5053695;28;20456;-76
2021/05/22 06:16:43;;;;;;;5.17;3.00;;;12.30;99.90;;;;;;5053552;28;21021;-75
2021/05/22 06:19:10;;;;;;;4.30;3.37;;;12.30;99.90;;;;;;5053604;28;20504;-76
2021/05/22 06:21:38;;;;;;;3.67;3.30;;;12.30;99.90;;;;;;5053508;28;20468;-75
2021/05/22 06:24:05;;;;;;;5.70;3.10;;;12.30;99.90;;;;;;5053520;28;20437;-76
2021/05/22 06:26:31;;;;;;;4.20;3.63;;;12.30;99.90;;;;;;5053451;28;20481;-75
2021/05/22 06:28:57;;;;;;;3.40;3.10;;;12.80;99.90;;;;;;5053372;28;20446;-76
2021/05/22 06:31:23;;;;;;;4.37;2.60;;;12.40;99.90;;;;;;5052936;28;20489;-76
2021/05/22 06:33:50;;;;;;;3.67;3.13;;;12.50;99.90;;;;;;5053304;28;20543;-75
2021/05/22 06:36:17;;;;;;;3.20;2.90;;;12.50;99.90;;;;;;5053088;28;20481;-75
2021/05/22 06:38:43;;;;;;;4.50;3.43;;;12.50;99.90;;;;;;5053310;28;20474;-76
2021/05/22 06:41:09;;;;;;;3.10;2.80;;;12.60;99.90;;;;;;5053224;28;20472;-76
2021/05/22 06:43:35;;;;;;;3.03;2.73;;;12.70;99.90;;;;;;5053226;28;20446;-77
2021/05/22 06:46:08;;;;;;;4.17;2.77;;;12.70;99.90;;;;;;5053174;28;20485;-76
2021/05/22 06:48:34;;;;;;;4.23;3.00;;;12.80;99.90;;;;;;5053371;28;20444;-75
2021/05/22 06:51:01;;;;;;;3.80;2.77;;;13.00;99.90;;;;;;5053102;28;20470;-77
2021/05/22 06:53:30;;;;;;;2.87;2.67;;;13.10;99.90;;;;;;5053088;28;20480;-76
2021/05/22 06:55:56;;;;;;;2.77;2.57;;;13.20;99.90;;;;;;5053286;28;20519;-76
2021/05/22 06:58:22;;;;;;;2.50;2.40;;;13.30;99.90;;;;;;5053167;28;20450;-75
2021/05/22 07:00:48;;;;;;;4.37;3.07;;;13.40;99.90;;;;;;5053115;28;20472;-76
2021/05/22 07:03:14;;;;;;;3.53;2.80;;;13.50;99.90;;;;;;5053069;28;20858;-77
2021/05/22 07:05:40;;;;;;;2.80;2.60;;;13.50;99.90;;;;;;5052687;28;20991;-76
2021/05/22 07:08:06;;;;;;;4.00;2.67;;;13.50;99.90;;;;;;5052948;28;20481;-77
2021/05/22 07:10:33;;;;;;;2.37;2.17;;;13.60;99.90;;;;;;5052888;28;20625;-76
2021/05/22 07:13:00;;;;;;;2.10;2.00;;;13.70;99.90;;;;;;5052726;28;20552;-76
2021/05/22 07:15:26;;;;;;;2.80;1.97;;;13.80;99.90;;;;;;5053082;28;20453;-77
2021/05/22 07:17:52;;;;;;;3.30;2.20;;;13.70;99.90;;;;;;5052937;28;20449;-76
2021/05/22 07:20:18;;;;;;;2.10;1.90;;;;;;;;;;5052646;28;20469;-77
2021/05/22 07:22:46;;;;;;;4.00;2.60;;;13.90;99.90;;;;;;5052586;28;20915;-77
2021/05/22 07:25:12;;;;;;;2.90;1.70;;;14.10;99.90;;;;;;5052845;28;20466;-76
2021/05/22 07:27:39;;;;;;;2.73;2.53;;;14.10;99.90;;;;;;5053786;28;21005;-76
2021/05/22 07:30:09;;;;;;;2.17;1.90;;;14.20;99.90;;;;;;5056481;28;20468;-76
2021/05/22 07:32:35;;;;;;;4.60;2.40;;;14.10;99.90;;;;;;5056743;28;20469;-76
2021/05/22 07:35:01;;;;;;;2.03;1.80;;;14.10;99.90;;;;;;5056703;28;20477;-76
2021/05/22 07:37:27;;;;;;;1.67;1.57;;;14.10;99.90;;;;;;5056776;28;20820;-77
2021/05/22 07:39:56;;;;;;;3.60;1.83;;;13.90;99.90;;;;;;5056691;28;20543;-76
2021/05/22 07:42:22;;;;;;;1.57;1.47;;;14.10;99.90;;;;;;5056713;28;20460;-75
2021/05/22 07:44:49;;;;;;;1.63;1.20;;;14.30;99.90;;;;;;5056860;28;20884;-76
2021/05/22 07:47:15;;;;;;;1.90;1.40;;;14.40;99.90;;;;;;5056610;28;20476;-76
2021/05/22 07:49:42;;;;;;;2.73;1.40;;;14.50;99.90;;;;;;5056614;28;20452;-76
2021/05/22 07:52:10;;;;;;;2.50;2.30;;;;;;;;;;5056220;28;20473;-76
2021/05/22 07:54:38;;;;;;;4.67;1.50;;;14.70;99.90;;;;;;5056326;28;20556;-77
2021/05/22 07:57:05;;;;;;;1.37;1.27;;;14.70;99.90;;;;;;5056294;28;20457;-75
2021/05/22 07:59:32;;;;;;;4.37;1.60;;;14.80;99.90;;;;;;5056400;28;20451;-76
2021/05/22 08:01:59;;;;;;;4.03;1.60;;;14.90;99.90;;;;;;5056069;28;20472;-75
2021/05/22 08:04:25;;;;;;;4.10;1.43;;;15.00;99.90;;;;;;5056162;28;20452;-77
2021/05/22 08:06:51;;;;;;;4.70;1.90;;;14.90;99.90;;;;;;5056228;28;20441;-76
2021/05/22 08:09:17;;;;;;;1.67;1.30;;;14.80;99.90;;;;;;5056213;28;20448;-76
2021/05/22 08:11:43;;;;;;;5.50;1.50;;;14.60;99.90;;;;;;5056085;28;20501;-76
2021/05/22 08:14:10;;;;;;;1.20;1.10;;;;;;;;;;5057786;28;20485;-76
2021/05/22 08:16:37;;;;;;;1.30;1.17;;;14.80;99.90;;;;;;5058464;28;20455;-76
2021/05/22 08:19:08;;;;;;;5.43;2.03;;;15.00;99.90;;;;;;5057576;28;20481;-76
2021/05/22 08:21:34;;;;;;;2.87;1.40;;;14.80;99.90;;;;;;5056766;28;20454;-76
2021/05/22 08:24:01;;;;;;;5.57;2.00;;;15.00;99.90;;;;;;5056521;28;20442;-76
2021/05/22 08:26:27;;;;;;;3.37;1.47;;;15.20;99.90;;;;;;5056428;28;20452;-76
2021/05/22 08:28:54;;;;;;;5.20;1.60;;;14.90;99.90;;;;;;5056439;28;20457;-78
2021/05/22 08:31:21;;;;;;;1.90;1.20;;;15.10;99.90;;;;;;5055637;28;20535;-77
2021/05/22 08:33:48;;;;;;;3.53;1.50;;;15.20;99.90;;;;;;5055796;28;20962;-75
2021/05/22 08:36:15;;;;;;;1.20;1.10;;;15.10;99.90;;;;;;5055771;28;20453;-76
2021/05/22 08:38:42;;;;;;;4.03;1.23;;;15.20;99.90;;;;;;5054952;28;20484;-75
2021/05/22 08:41:09;;;;;;;2.13;1.93;;;15.40;99.90;;;;;;5055549;28;20472;-77
2021/05/22 08:43:36;;;;;;;3.97;1.60;;;15.40;99.90;;;;;;5055385;28;20453;-76
2021/05/22 08:46:07;;;;;;;3.33;1.57;;;15.60;99.90;;;;;;5055707;28;20453;-76
2021/05/22 08:48:33;;;;;;;1.73;1.30;;;15.60;99.90;;;;;;5055622;28;20426;-75
2021/05/22 08:51:00;;;;;;;6.20;1.50;;;15.80;99.90;;;;;;5055903;28;20876;-76
2021/05/22 08:53:27;;;;;;;3.03;1.20;;;15.90;99.90;;;;;;5055188;28;20477;-76
2021/05/22 08:55:53;;;;;;;3.73;1.80;;;15.90;99.90;;;;;;5055296;28;20495;-76
2021/05/22 08:58:19;;;;;;;4.13;2.13;;;16.00;99.90;;;;;;5055327;28;20446;-76
2021/05/22 09:00:46;;;;;;;2.93;1.50;;;16.10;99.90;;;;;;5055194;28;20477;-76
2021/05/22 09:03:13;;;;;;;4.60;1.73;;;16.00;99.90;;;;;;5055138;28;20457;-76
2021/05/22 09:05:41;;;;;;;4.73;1.30;;;16.00;99.90;;;;;;5054893;28;20542;-77
2021/05/22 09:08:11;;;;;;;2.30;1.40;;;16.20;99.90;;;;;;5055048;28;20548;-76
2021/05/22 09:10:39;;;;;;;4.63;1.40;;;16.10;99.90;;;;;;5054678;28;20461;-76
2021/05/22 09:13:08;;;;;;;4.77;2.10;;;16.20;99.90;;;;;;5054648;28;20517;-76
2021/05/22 09:15:36;;;;;;;3.27;2.07;;;16.20;99.90;;;;;;5054872;28;20511;-76
2021/05/22 09:18:05;;;;;;;9.60;1.70;;;16.10;99.90;;;;;;5054785;28;20528;-76
2021/05/22 09:20:35;;;;;;;5.67;2.10;;;16.30;99.90;;;;;;5054707;28;20480;-76
2021/05/22 09:23:05;;;;;;;2.50;1.60;;;16.40;99.90;;;;;;5054886;28;20445;-76
2021/05/22 09:25:33;;;;;;;2.33;1.30;;;16.50;99.90;;;;;;5054872;28;20449;-75
2021/05/22 09:28:00;;;;;;;7.23;1.73;;;16.60;99.90;;;;;;5055210;28;20812;-76
2021/05/22 09:39:17;;;;;;;2.90;2.33;;;16.70;99.90;;;;;;5017808;28;20379;-76
2021/05/22 09:42:06;;;;;;;4.67;1.77;;;16.20;99.90;;;;;;5016152;28;20479;-78
2021/05/22 09:44:35;;;;;;;1.40;1.13;;;;;;;;;;5012133;28;20455;-78
2021/05/22 09:47:09;;;;;;;4.23;2.27;;;;;;;;;;5019546;28;20838;-78
2021/05/22 09:49:39;;;;;;;5.83;1.50;;;16.20;99.90;;;;;;5019676;28;20404;-78
2021/05/22 09:52:17;;;;;;;5.03;1.87;;;16.60;99.90;;;;;;5015834;28;20470;-78
2021/05/22 09:54:52;;;;;;;3.37;1.40;;;16.70;99.90;;;;;;5015809;28;20467;-78
2021/05/22 09:57:28;;;;;;;2.90;2.07;;;;;;;;;;5019225;28;20447;-78
2021/05/22 10:00:34;;;;;;;3.93;1.60;;;16.90;99.90;;;;;;5018153;28;20431;-76
2021/05/22 10:03:06;;;;;;;3.23;1.23;;;;;;;;;;5017077;28;20459;-78
2021/05/22 10:05:36;;;;;;;2.90;1.70;;;16.70;99.90;;;;;;5017602;28;20435;-77
2021/05/22 10:08:11;;;;;;;0.90;0.90;;;;;;;;;;5017882;28;20933;-77
2021/05/22 10:11:01;;;;;;;5.10;2.00;;;16.60;99.90;;;;;;5017848;28;20467;-77
2021/05/22 10:13:29;;;;;;;2.97;1.43;;;;;;;;;;5017938;28;20554;-78
2021/05/22 10:18:47;;;;;;;6.93;5.13;;;;;;;;;;5014614;28;20438;-78
2021/05/22 10:21:14;;;;;;;7.00;1.93;;;;;;;;;;5017484;28;20819;-78
2021/05/22 10:23:43;;;;;;;2.13;1.23;;;;;;;;;;5016061;28;20455;-78
2021/05/22 10:26:14;;;;;;;4.20;2.43;;;17.60;99.90;;;;;;5016362;28;20477;-78
2021/05/22 10:28:46;;;;;;;1.77;1.60;;;;;;;;;;5015883;28;20408;-78
2021/05/22 10:31:17;;;;;;;3.23;1.20;;;;;;;;;;5015998;28;20473;-77
2021/05/22 10:33:43;;;;;;;2.07;1.40;;;;;;;;;;5014352;28;20560;-78
2021/05/22 10:36:12;;;;;;;5.20;1.20;;;;;;;;;;5014887;28;20470;-77
2021/05/22 10:38:51;;;;;;;3.70;1.40;;;;;;;;;;5015202;28;20447;-77
2021/05/22 10:41:44;;;;;;;2.37;1.80;;;;;;;;;;5015693;28;20475;-78
2021/05/22 10:44:29;;;;;;;6.03;2.73;;;17.00;99.90;;;;;;5016228;28;20442;-78
2021/05/22 10:47:12;;;;;;;2.17;1.47;;;;;;;;;;5016803;28;20432;-78
2021/05/22 10:49:52;;;;;;;2.20;1.50;;;16.70;99.90;;;;;;5016195;28;20483;-78
2021/05/22 10:52:20;;;;;;;2.53;1.37;;;16.70;99.90;;;;;;5017591;28;20471;-77
2021/05/22 10:55:01;;;;;;;2.50;1.70;;;16.60;99.90;;;;;;5021937;28;20451;-77
2021/05/22 10:57:28;;;;;;;3.07;1.93;;;15.80;99.90;;;;;;5016591;28;20451;-77
2021/05/22 11:00:20;;;;;;;4.00;2.07;;;16.10;99.90;;;;;;5016612;28;20439;-78
2021/05/22 11:02:50;;;;;;;6.43;1.93;;;16.00;99.90;;;;;;5016541;28;20837;-78
2021/05/22 11:05:35;;;;;;;1.67;1.30;;;15.80;99.90;;;;;;5017812;28;20515;-78
2021/05/22 11:08:27;;;;;;;3.37;1.27;;;15.70;99.90;;;;;;5018026;28;20438;-78
2021/05/22 11:11:02;;;;;;;2.03;1.40;;;15.80;99.90;;;;;;5017963;28;20838;-78
2021/05/22 11:13:42;;;;;;;1.20;1.10;;;15.80;99.90;;;;;;5016599;28;20467;-77
2021/05/22 11:16:08;;;;;;;2.80;1.43;;;15.90;99.90;;;;;;5017368;28;20450;-78
2021/05/22 11:19:01;;;;;;;5.83;1.43;;;16.10;99.90;;;;;;5020794;28;20443;-79
2021/05/22 11:21:28;;;;;;;3.33;1.50;;;16.20;99.90;;;;;;5019971;28;20494;-77
2021/05/22 11:24:09;;;;;;;3.47;1.37;;;16.40;99.90;;;;;;5020438;28;20455;-78
2021/05/22 11:27:02;;;;;;;4.83;1.30;;;16.50;99.90;;;;;;5015593;28;20431;-77
2021/05/22 11:29:52;;;;;;;2.70;1.97;;;16.40;99.90;;;;;;4980250;28;20456;-79
2021/05/22 11:32:49;;;;;;;1.33;1.00;;;16.40;99.90;;;;;;5014507;28;20518;-78
2021/05/22 11:35:45;;;;;;;1.93;1.27;;;16.40;99.90;;;;;;5015914;28;20455;-78
2021/05/22 11:38:38;;;;;;;3.00;1.63;;;16.40;99.90;;;;;;5018097;28;20516;-78
2021/05/22 11:41:12;;;;;;;6.30;1.40;;;16.50;99.90;;;;;;5020613;28;20514;-77
2021/05/22 11:43:44;;;;;;;1.60;1.40;;;16.60;99.90;;;;;;5017866;28;20466;-77
2021/05/22 11:46:15;;;;;;;3.03;1.80;;;16.70;99.90;;;;;;5015993;28;20553;-78
2021/05/22 11:48:50;;;;;;;4.00;1.50;;;16.60;99.90;;;;;;5016283;28;20427;-77
2021/05/22 11:51:20;;;;;;;2.60;1.70;;;16.60;99.90;;;;;;5021222;28;20466;-78
2021/05/22 11:53:58;;;;;;;3.87;1.37;;;16.60;99.90;;;;;;5020364;28;20509;-78
2021/05/22 11:56:25;;;;;;;3.13;1.90;;;16.50;99.90;;;;;;5002352;28;20450;-80
2021/05/22 11:58:52;;;;;;;7.60;2.13;;;16.40;99.90;;;;;;5015695;28;20447;-78
2021/05/22 12:01:20;;;;;;;2.97;1.70;;;16.60;99.90;;;;;;5015938;28;20467;-78
2021/05/22 12:03:48;;;;;;;6.60;2.07;;;16.80;99.90;;;;;;5015049;28;20447;-78
2021/05/22 12:06:30;;;;;;;3.40;1.90;;;16.80;99.90;;;;;;5015552;28;20447;-78
2021/05/22 12:09:02;;;;;;;3.67;1.43;;;16.80;99.90;;;;;;5021385;28;20550;-78
2021/05/22 12:11:30;;;;;;;3.10;1.40;;;16.60;99.90;;;;;;5018943;28;20494;-77
2021/05/22 12:13:58;;;;;;;2.60;1.20;;;16.90;99.90;;;;;;5023544;28;20479;-78
2021/05/22 12:16:24;;;;;;;2.87;1.20;;;16.60;99.60;;;;;;5018702;28;20451;-78
2021/05/22 12:18:52;;;;;;;4.17;1.60;;;16.80;99.90;;;;;;5018753;28;20573;-77
2021/05/22 12:21:26;;;;;;;2.80;1.37;;;17.00;99.90;;;;;;5018335;28;20470;-78
2021/05/22 12:23:59;;;;;;;2.33;1.60;;;17.20;99.90;;;;;;5018875;28;20462;-78
2021/05/22 12:26:25;;;;;;;4.30;1.37;;;17.30;99.90;;;;;;5018121;28;20442;-78
2021/05/22 12:28:52;;;;;;;2.00;1.07;;;17.50;99.90;;;;;;5017942;28;20462;-78
2021/05/22 12:31:18;;;;;;;2.77;1.90;;;17.50;98.70;;;;;;5018270;28;20500;-78
2021/05/22 12:33:58;;;;;;;4.47;1.50;;;17.50;99.60;;;;;;5017375;28;20569;-78
2021/05/22 12:36:25;;;;;;;8.27;1.70;;;17.50;98.70;;;;;;5016785;28;20958;-78
2021/05/22 12:38:51;;;;;;;2.07;1.60;;;17.40;98.60;;;;;;5017629;28;20464;-78
2021/05/22 12:41:32;;;;;;;4.27;1.90;;;17.50;99.90;;;;;;5021185;28;20470;-78
2021/05/22 12:43:58;;;;;;;2.50;1.67;;;17.30;99.80;;;;;;5031850;28;20490;-77
2021/05/22 12:46:27;;;;;;;3.83;1.30;;;17.20;98.60;;;;;;5032652;28;20455;-78
2021/05/22 12:49:06;;;;;;;4.20;3.20;;;17.40;99.90;;;;;;5036034;28;20431;-77
2021/05/22 12:51:32;;;;;;;2.70;1.20;;;17.20;98.70;;;;;;5036738;28;20538;-77
2021/05/22 12:53:58;;;;;;;2.67;1.20;;;17.30;98.30;;;;;;5033100;28;20482;-78
2021/05/22 12:56:25;;;;;;;2.87;1.40;;;16.90;99.90;;;;;;5023039;28;20451;-77
2021/05/22 12:58:51;;;;;;;4.73;1.43;;;17.00;98.90;;;;;;5023541;28;20451;-77
2021/05/22 13:01:19;;;;;;;3.40;1.70;;;17.00;99.90;;;;;;5023191;28;20467;-77
2021/05/22 13:03:49;;;;;;;2.77;1.20;;;17.00;99.40;;;;;;5022631;28;20462;-77
2021/05/22 13:06:25;;;;;;;1.53;1.30;;;17.00;98.80;;;;;;5022805;28;20455;-78
2021/05/22 13:08:51;;;;;;;1.63;1.20;;;17.30;99.70;;;;;;5021987;28;20494;-78
2021/05/22 13:11:18;;;;;;;4.50;1.73;;;17.50;98.20;;;;;;5021785;28;20478;-77
2021/05/22 13:13:45;;;;;;;2.33;1.00;;;17.50;97.60;;;;;;5018056;28;20487;-81